createdAt,value
2018-08-22T00:04:13.217Z,99.90
2018-08-22T00:07:01.904Z,99.90
2018-08-22T00:09:42.170Z,99.90
2018-08-22T00:15:46.047Z,99.90
2018-08-22T00:18:26.184Z,99.90
2018-08-22T00:21:25.212Z,99.90
2018-08-22T00:24:15.827Z,99.90
2018-08-22T00:26:54.673Z,99.90
2018-08-22T00:43:06.693Z,99.90
2018-08-22T00:45:46.959Z,99.90
2018-08-22T00:48:28.206Z,99.90
2018-08-22T00:51:05.596Z,99.90
2018-08-22T00:53:53.937Z,99.90
2018-08-22T00:56:40.196Z,99.90
2018-08-22T00:59:17.432Z,99.90
2018-08-22T01:02:18.059Z,99.90
2018-08-22T01:05:12.919Z,99.90
2018-08-22T01:07:47.326Z,99.90
2018-08-22T01:10:21.583Z,99.90
2018-08-22T01:12:53.831Z,99.90
2018-08-22T01:15:36.632Z,99.90
2018-08-22T01:18:19.755Z,99.90
2018-08-22T01:20:57.949Z,99.90
2018-08-22T01:23:38.403Z,99.90
2018-08-22T01:26:23.484Z,99.90
2018-08-22T01:29:00.353Z,99.90
2018-08-22T01:31:32.094Z,99.90
2018-08-22T01:34:09.011Z,99.90
2018-08-22T01:36:52.362Z,99.90
2018-08-22T01:39:33.674Z,99.90
2018-08-22T01:42:09.348Z,99.90
2018-08-22T01:47:40.750Z,99.90
2018-08-22T01:56:04.033Z,99.90
2018-08-22T01:58:45.234Z,99.90
2018-08-22T02:01:24.201Z,99.90
2018-08-22T02:04:10.673Z,99.90
2018-08-22T02:06:58.794Z,99.90
2018-08-22T02:09:38.215Z,99.90
2018-08-22T02:12:27.128Z,99.90
2018-08-22T02:15:04.427Z,99.90
2018-08-22T02:17:40.354Z,99.90
2018-08-22T02:20:21.574Z,99.90
2018-08-22T02:23:25.111Z,99.90
2018-08-22T02:26:04.557Z,99.90
2018-08-22T02:32:53.715Z,99.90
2018-08-22T02:35:29.483Z,99.90
2018-08-22T02:38:08.994Z,99.90
2018-08-22T02:40:53.515Z,99.90
2018-08-22T02:43:38.103Z,99.90
2018-08-22T02:46:31.006Z,99.90
2018-08-22T02:49:05.476Z,99.90
2018-08-22T02:51:46.022Z,99.90
2018-08-22T02:54:35.521Z,99.90
2018-08-22T02:57:12.826Z,99.90
2018-08-22T02:59:52.699Z,99.90
2018-08-22T03:02:35.336Z,99.90
2018-08-22T03:05:30.002Z,99.90
2018-08-22T03:08:09.567Z,99.90
2018-08-22T03:10:52.834Z,99.90
2018-08-22T03:13:48.816Z,99.90
2018-08-22T03:16:34.766Z,99.90
2018-08-22T03:28:07.014Z,99.90
2018-08-22T03:30:40.891Z,99.90
2018-08-22T03:33:20.797Z,99.90
2018-08-22T03:35:58.706Z,99.90
2018-08-22T03:38:34.057Z,99.90
2018-08-22T03:41:18.424Z,99.90
2018-08-22T03:43:55.258Z,99.90
2018-08-22T03:46:33.545Z,99.90
2018-08-22T03:49:18.442Z,99.90
2018-08-22T03:52:06.001Z,99.90
2018-08-22T03:54:36.939Z,99.90
2018-08-22T03:57:18.374Z,99.90
2018-08-22T03:59:56.024Z,99.90
2018-08-22T04:02:33.022Z,99.90
2018-08-22T04:05:09.887Z,99.90
2018-08-22T04:07:56.953Z,99.90
2018-08-22T04:10:29.699Z,99.90
2018-08-22T04:13:17.334Z,99.90
2018-08-22T04:15:58.455Z,99.90
2018-08-22T04:18:31.730Z,99.90
2018-08-22T04:21:13.840Z,99.90
2018-08-22T04:23:55.200Z,99.90
2018-08-22T04:26:29.040Z,99.90
2018-08-22T04:29:16.458Z,99.90
2018-08-22T04:32:01.337Z,99.90
2018-08-22T04:48:37.732Z,99.90
2018-08-22T04:51:15.454Z,99.90
2018-08-22T04:53:55.647Z,99.90
2018-08-22T04:56:34.426Z,99.90
2018-08-22T04:59:23.938Z,99.90
2018-08-22T05:02:12.928Z,99.90
2018-08-22T05:05:06.985Z,99.90
2018-08-22T05:08:27.767Z,99.90
2018-08-22T05:11:12.293Z,99.90
2018-08-22T05:13:51.759Z,99.90
2018-08-22T05:16:37.230Z,99.90
2018-08-22T05:22:37.865Z,99.90
2018-08-22T05:25:26.762Z,99.90
2018-08-22T05:28:38.224Z,99.90
2018-08-22T05:31:24.813Z,99.90
2018-08-22T05:34:23.855Z,99.90
2018-08-22T05:37:19.456Z,99.90
2018-08-22T05:40:00.684Z,99.90
2018-08-22T05:43:19.456Z,99.90
2018-08-22T05:52:02.132Z,99.90
2018-08-22T05:54:49.891Z,99.90
2018-08-22T05:57:51.240Z,99.90
2018-08-22T06:06:01.946Z,99.90
2018-08-22T06:08:42.830Z,99.90
2018-08-22T06:11:31.182Z,99.90
2018-08-22T06:21:00.192Z,99.90
2018-08-22T06:23:37.527Z,99.90
2018-08-22T06:26:37.800Z,99.90
2018-08-22T06:29:17.180Z,99.30
2018-08-22T06:34:38.267Z,97.80
2018-08-22T06:37:19.702Z,96.10
2018-08-22T06:40:01.533Z,95.40
2018-08-22T06:42:45.300Z,94.30
2018-08-22T06:45:31.688Z,93.50
2018-08-22T06:48:13.601Z,91.80
2018-08-22T06:55:57.481Z,85.50
2018-08-22T07:04:14.772Z,79.70
2018-08-22T07:06:53.039Z,78.80
2018-08-22T07:09:38.781Z,76.00
2018-08-22T07:12:22.839Z,73.90
2018-08-22T07:14:58.857Z,71.80
2018-08-22T07:17:43.472Z,71.70
2018-08-22T07:20:51.272Z,73.60
2018-08-22T07:23:37.914Z,73.00
2018-08-22T07:26:22.669Z,70.20
2018-08-22T07:29:01.584Z,69.50
2018-08-22T07:32:22.576Z,68.30
2018-08-22T07:38:12.242Z,65.90
2018-08-22T07:40:55.332Z,64.20
2018-08-22T07:43:35.307Z,62.90
2018-08-22T07:46:15.045Z,62.50
2018-08-22T07:48:54.254Z,62.50
2018-08-22T07:51:47.086Z,60.60
2018-08-22T07:54:36.836Z,59.50
2018-08-22T07:57:15.491Z,58.40
2018-08-22T07:59:58.689Z,57.90
2018-08-22T08:11:38.877Z,58.20
2018-08-22T08:17:36.984Z,57.40
2018-08-22T08:20:20.387Z,58.20
2018-08-22T08:26:16.877Z,56.50
2018-08-22T08:29:00.378Z,55.80
2018-08-22T08:32:05.327Z,55.40
2018-08-22T08:35:01.371Z,55.50
2018-08-22T08:37:49.398Z,55.10
2018-08-22T08:41:14.275Z,54.50
2018-08-22T08:44:04.922Z,55.30
2018-08-22T08:46:49.570Z,54.20
2018-08-22T08:50:09.935Z,54.40
2018-08-22T08:52:57.541Z,52.60
2018-08-22T08:55:47.055Z,52.60
2018-08-22T08:58:32.793Z,52.70
2018-08-22T09:01:17.488Z,53.00
2018-08-22T09:06:52.597Z,54.20
2018-08-22T09:09:31.469Z,55.00
2018-08-22T09:12:13.997Z,55.90
2018-08-22T09:17:59.345Z,52.40
2018-08-22T09:20:40.656Z,51.30
2018-08-22T09:23:40.739Z,51.90
2018-08-22T09:26:29.927Z,53.40
2018-08-22T09:29:09.504Z,52.80
2018-08-22T09:31:51.929Z,52.80
2018-08-22T09:34:38.940Z,52.60
2018-08-22T09:37:18.066Z,53.80
2018-08-22T09:40:00.280Z,53.80
2018-08-22T09:42:40.018Z,52.40
2018-08-22T09:45:26.285Z,51.80
2018-08-22T09:48:01.559Z,51.50
2018-08-22T09:50:41.667Z,51.50
2018-08-22T09:53:22.169Z,51.90
2018-08-22T10:03:20.822Z,52.60
2018-08-22T10:06:05.411Z,53.20
2018-08-22T10:11:55.012Z,54.30
2018-08-22T10:14:53.092Z,54.90
2018-08-22T10:17:36.623Z,56.30
2018-08-22T10:20:14.319Z,55.10
2018-08-22T10:22:52.451Z,55.70
2018-08-22T10:25:30.989Z,56.00
2018-08-22T10:31:11.939Z,56.60
2018-08-22T10:33:53.287Z,57.30
2018-08-22T10:39:42.863Z,58.10
2018-08-22T10:42:40.921Z,57.70
2018-08-22T10:45:20.920Z,57.60
2018-08-22T10:48:14.895Z,57.50
2018-08-22T10:51:15.199Z,57.30
2018-08-22T10:53:58.343Z,57.00
2018-08-22T10:57:03.770Z,56.90
2018-08-22T10:59:49.737Z,57.90
2018-08-22T11:02:38.559Z,57.10
2018-08-22T11:08:06.250Z,58.40
2018-08-22T11:11:04.252Z,59.00
2018-08-22T11:13:45.244Z,57.80
2018-08-22T11:21:24.899Z,58.20
2018-08-22T11:27:11.736Z,57.60
2018-08-22T11:29:56.081Z,58.30
2018-08-22T11:32:43.552Z,58.40
2018-08-22T11:35:22.903Z,56.10
2018-08-22T11:37:58.777Z,57.40
2018-08-22T11:41:07.049Z,58.50
2018-08-22T11:43:40.754Z,58.10
2018-08-22T11:46:29.149Z,56.80
2018-08-22T11:49:07.193Z,56.80
2018-08-22T11:51:46.317Z,57.60
2018-08-22T11:54:24.205Z,56.90
2018-08-22T11:57:00.423Z,58.40
2018-08-22T11:59:45.795Z,57.70
2018-08-22T12:02:27.929Z,58.40
2018-08-22T12:05:11.203Z,56.60
2018-08-22T12:07:47.904Z,56.40
2018-08-22T12:10:36.803Z,59.70
2018-08-22T12:13:18.866Z,58.40
2018-08-22T12:16:03.098Z,58.10
2018-08-22T12:19:08.234Z,59.10
2018-08-22T12:21:54.856Z,59.00
2018-08-22T12:24:47.457Z,58.40
2018-08-22T12:27:38.472Z,59.80
2018-08-22T12:30:34.146Z,60.00
2018-08-22T12:33:28.292Z,60.30
2018-08-22T12:36:48.899Z,59.20
2018-08-22T12:39:42.502Z,59.70
2018-08-22T12:49:57.092Z,60.00
2018-08-22T12:53:16.170Z,60.80
2018-08-22T13:06:23.585Z,61.80
2018-08-22T13:09:22.886Z,63.10
2018-08-22T13:12:49.146Z,62.40
2018-08-22T13:19:52.187Z,62.00
2018-08-22T17:09:31.500Z,61.90
2018-08-22T17:12:13.259Z,90.90
2018-08-22T17:36:29.471Z,92.40
2018-08-22T17:39:22.796Z,94.50
2018-08-22T17:42:14.249Z,95.00
2018-08-22T17:48:09.211Z,96.50
2018-08-22T17:51:00.913Z,97.30
2018-08-22T17:54:00.785Z,97.60
2018-08-22T17:56:55.907Z,98.70
2018-08-22T18:34:19.666Z,99.90
2018-08-22T18:37:18.986Z,99.90
2018-08-22T19:01:57.232Z,99.90
2018-08-22T19:43:00.548Z,99.90
2018-08-22T19:45:56.785Z,99.90
2018-08-22T19:51:40.118Z,99.90
2018-08-22T19:57:25.208Z,99.90
2018-08-22T20:08:16.284Z,99.90
2018-08-22T20:11:09.111Z,99.90
2018-08-22T20:25:47.197Z,99.90
2018-08-22T20:28:34.010Z,99.90
2018-08-22T20:31:26.590Z,99.90
2018-08-22T20:34:13.128Z,99.90
2018-08-22T20:36:56.877Z,99.90
2018-08-22T20:42:46.226Z,99.90
2018-08-22T20:45:41.212Z,99.90
2018-08-22T20:48:31.183Z,99.90
2018-08-22T20:51:22.629Z,99.90
2018-08-22T20:54:12.022Z,99.90
2018-08-22T20:57:14.720Z,99.90
2018-08-22T21:06:22.484Z,99.90
2018-08-22T21:09:12.424Z,99.90
2018-08-22T21:12:06.874Z,99.90
2018-08-22T21:14:53.189Z,99.90
2018-08-22T21:20:32.000Z,99.90
2018-08-22T21:42:12.766Z,99.90
2018-08-22T21:45:26.367Z,99.90
2018-08-22T21:48:16.049Z,99.90
2018-08-22T21:54:29.785Z,99.90
2018-08-22T21:57:40.001Z,99.90
2018-08-22T22:00:33.446Z,99.90
2018-08-22T22:06:39.626Z,99.90
2018-08-22T22:09:31.297Z,99.90
2018-08-22T22:12:19.772Z,99.90
2018-08-22T22:15:15.300Z,99.90
2018-08-22T22:18:42.615Z,99.90
2018-08-22T22:23:08.977Z,99.90
2018-08-22T22:25:55.046Z,99.90
2018-08-22T22:29:11.045Z,99.90
2018-08-22T22:35:42.088Z,99.90
2018-08-22T22:38:27.148Z,99.90
2018-08-22T22:41:09.707Z,99.90
2018-08-22T22:43:56.857Z,99.90
2018-08-22T22:55:22.500Z,99.90
2018-08-22T22:58:09.851Z,99.90
2018-08-22T23:00:52.163Z,99.90
2018-08-22T23:03:34.248Z,99.90
2018-08-22T23:09:02.776Z,99.90
2018-08-22T23:11:37.844Z,99.90
2018-08-22T23:14:21.549Z,99.90
2018-08-22T23:17:08.367Z,99.90
2018-08-22T23:19:51.300Z,99.90
2018-08-22T23:22:31.574Z,99.90
2018-08-22T23:25:18.490Z,99.90
2018-08-22T23:28:06.258Z,99.90
2018-08-22T23:32:55.148Z,99.90
2018-08-22T23:59:22.151Z,99.90
